Time;durP1;ratioP1;P1;durP2;ratioP2;P2;SDS_P1;SDS_P2;PMS_P1;PMS_P2;Temp;Humidity;BMP_temperature;BMP_pressure;BME280_temperature;BME280_humidity;BME280_pressure;Samples;Min_cycle;Max_cycle;Signal;HPM_P1;HPM_P2
2022/02/08 00:02:01;;;;;;;;;4.00;2.00;;;;;3.58;76.21;99775.53;6317437;20;3466981;-47
2022/02/08 00:04:30;;;;;;;;;5.25;5.25;;;;;3.61;75.77;99788.72;6302216;20;1823288;-46
2022/02/08 00:07:02;;;;;;;;;4.00;2.00;;;;;3.51;76.56;99787.25;6334089;20;1825396;-46
2022/02/08 00:09:31;;;;;;;;;2.00;2.00;;;;;3.45;76.18;99792.75;6317239;20;2751327;-49
2022/02/08 00:12:00;;;;;;;;;4.00;2.00;;;;;3.54;76.16;99797.78;6316812;20;3454818;-47
2022/02/08 00:14:29;;;;;;;;;6.25;4.00;;;;;3.32;77.07;99796.69;6335154;20;1822302;-47
2022/02/08 00:16:58;;;;;;;;;6.50;3.50;;;;;3.45;75.87;99803.34;6335134;20;1812774;-45
2022/02/08 00:19:27;;;;;;;;;8.00;4.25;;;;;3.57;75.71;99797.69;6336583;20;1823136;-47
2022/02/08 00:21:55;;;;;;;;;5.33;4.00;;;;;3.44;76.21;99806.94;6313925;20;3457564;-46
2022/02/08 00:24:23;;;;;;;;;8.00;5.00;;;;;3.35;75.87;99812.53;6313785;20;2754477;-46
2022/02/08 00:26:50;;;;;;;;;7.33;4.33;;;;;3.51;75.84;99813.81;6284231;20;3453362;-46
2022/02/08 00:29:21;;;;;;;;;6.00;4.00;;;;;3.45;75.68;99824.59;6359337;20;2580469;-45
2022/02/08 00:31:49;;;;;;;;;5.00;4.00;;;;;3.59;75.32;99826.84;6287099;20;3472141;-45
2022/02/08 00:34:19;;;;;;;;;4.00;4.00;;;;;3.71;74.39;99830.00;6330846;20;1825416;-48
2022/02/08 00:36:47;;;;;;;;;4.33;2.00;;;;;3.73;74.08;99845.84;6315169;20;3454415;-47
2022/02/08 00:39:16;;;;;;;;;3.00;2.00;;;;;3.62;74.47;99853.28;6334262;20;1819039;-48
2022/02/08 00:41:43;;;;;;;;;5.00;4.00;;;;;3.48;74.16;99859.03;6316264;20;3472145;-45
2022/02/08 00:44:19;;;;;;;;;2.00;2.00;;;;;3.46;74.79;99866.16;6283898;20;2749216;-47
2022/02/08 00:46:59;;;;;;;;;5.75;2.00;;;;;3.69;73.84;99873.44;6335250;20;1825338;-45
2022/02/08 00:49:33;;;;;;;;;12.00;4.25;;;;;3.46;73.68;99879.44;6334419;20;1828542;-45
2022/02/08 00:52:07;;;;;;;;;6.00;2.25;;;;;3.65;73.70;99880.59;6332408;20;1823270;-45
2022/02/08 00:54:36;;;;;;;;;5.50;4.00;;;;;3.58;73.83;99884.38;6332012;20;1815925;-45
2022/02/08 00:57:04;;;;;;;;;4.67;4.00;;;;;3.61;73.46;99884.28;6314446;20;3457712;-47
2022/02/08 00:59:33;;;;;;;;;5.00;5.00;;;;;3.35;74.27;99881.53;6333266;20;1824249;-46
2022/02/08 01:02:03;;;;;;;;;5.50;4.00;;;;;3.35;74.43;99882.41;6333018;20;1818081;-46
2022/02/08 01:04:31;;;;;;;;;7.33;4.00;;;;;3.29;73.82;99880.78;6315865;20;3460652;-45
2022/02/08 01:07:05;;;;;;;;;5.50;3.50;;;;;3.28;74.68;99873.72;6300528;20;1818104;-46
2022/02/08 01:09:45;;;;;;;;;4.00;4.00;;;;;3.28;75.16;99865.78;6334943;20;1816981;-47
2022/02/08 01:12:16;;;;;;;;;4.00;4.00;;;;;3.11;75.65;99868.06;6332712;20;1811769;-46
2022/02/08 01:14:47;;;;;;;;;7.67;3.33;;;;;3.36;73.98;99872.66;6315856;20;3470036;-49
2022/02/08 01:17:20;;;;;;;;;5.75;2.00;;;;;3.15;74.68;99869.69;6301839;20;1825436;-48
2022/02/08 01:19:57;;;;;;;;;4.00;4.00;;;;;3.35;74.04;99862.97;6331403;20;1823002;-46
2022/02/08 01:22:26;;;;;;;;;7.00;4.00;;;;;3.12;74.10;99869.78;6333881;20;1825317;-46
2022/02/08 01:24:54;;;;;;;;;5.00;3.33;;;;;3.19;74.51;99871.34;6315382;20;3459666;-50
2022/02/08 01:27:28;;;;;;;;;6.00;2.50;;;;;3.20;74.27;99874.88;6333436;20;1825331;-47
2022/02/08 01:30:00;;;;;;;;;5.25;4.00;;;;;3.18;74.47;99889.94;6332525;20;1814875;-46
2022/02/08 01:35:53;;;;;;;;;9.00;4.25;;;;;3.00;75.29;99896.63;6331623;20;1825351;-46
2022/02/08 01:38:06;;;;;;;;;5.25;4.75;;;;;3.10;74.85;99898.13;6331101;20;1818478;-46
2022/02/08 01:40:52;;;;;;;;;8.00;4.00;;;;;2.98;74.71;99901.13;6316265;20;2740993;-46
2022/02/08 01:46:15;;;;;;;;;9.00;5.00;;;;;3.23;74.28;99910.13;6315448;20;3466914;-46
2022/02/08 01:48:56;;;;;;;;;8.75;4.25;;;;;3.15;74.09;99916.56;6302032;20;1821129;-52
2022/02/08 01:51:27;;;;;;;;;5.17;4.00;;;;;3.13;74.47;99919.25;6354862;20;1801300;-50
2022/02/08 01:53:55;;;;;;;;;2.00;0.67;;;;;3.22;74.17;99918.16;6286191;20;2729530;-51
2022/02/08 01:56:23;;;;;;;;;6.00;4.00;;;;;3.14;73.73;99915.72;6332068;20;1824269;-49
2022/02/08 01:58:51;;;;;;;;;1.67;0.67;;;;;3.18;74.04;99935.91;6314929;20;3443978;-49
2022/02/08 02:01:19;;;;;;;;;4.25;4.00;;;;;3.15;74.05;99930.72;6329464;20;1825467;-47
2022/02/08 02:03:47;;;;;;;;;2.00;2.00;;;;;3.09;73.30;99938.84;6316366;20;3445081;-50
2022/02/08 02:06:37;;;;;;;;;5.00;5.00;;;;;3.28;73.12;99937.41;6313711;20;3472163;-49
2022/02/08 02:09:06;;;;;;;;;4.50;2.00;;;;;3.16;73.00;99960.75;6298226;20;1815913;-46
2022/02/08 02:11:35;;;;;;;;;3.50;1.75;;;;;3.23;73.05;99952.59;6331005;20;1815970;-45
2022/02/08 02:14:03;;;;;;;;;2.67;1.00;;;;;3.16;73.26;99950.13;6315592;20;2712848;-48
2022/02/08 02:16:47;;;;;;;;;7.50;2.00;;;;;3.10;73.71;99956.47;6332229;20;1830146;-46
2022/02/08 02:19:16;;;;;;;;;7.75;3.50;;;;;3.12;74.27;99954.66;6331325;20;1825287;-45
2022/02/08 02:21:45;;;;;;;;;4.50;2.00;;;;;3.10;74.84;99963.56;6332266;20;1820071;-45
2022/02/08 02:24:13;;;;;;;;;6.75;3.00;;;;;3.26;75.12;99971.06;6330565;20;1823722;-45
2022/02/08 02:26:41;;;;;;;;;8.67;8.00;;;;;3.40;74.43;99961.91;6314229;20;3465851;-46
2022/02/08 02:29:16;;;;;;;;;4.00;4.00;;;;;3.22;74.08;99977.38;6298076;20;1812814;-46
2022/02/08 02:31:45;;;;;;;;;6.00;2.00;;;;;3.19;73.78;99977.47;6329240;20;1825383;-46
2022/02/08 02:34:18;;;;;;;;;5.00;4.00;;;;;3.25;73.86;99987.06;6312923;20;3454402;-47
2022/02/08 02:36:46;;;;;;;;;5.00;3.00;;;;;3.21;73.60;100002.19;6313883;20;3453403;-46
2022/02/08 02:39:21;;;;;;;;;6.00;4.00;;;;;3.04;73.60;100007.91;6313863;20;3465916;-46
2022/02/08 02:41:48;;;;;;;;;2.67;2.67;;;;;3.12;74.01;100007.72;6312405;20;3457518;-46
2022/02/08 02:44:19;;;;;;;;;4.00;4.00;;;;;3.14;74.11;100016.53;6313707;20;3450342;-46
2022/02/08 02:46:47;;;;;;;;;10.67;4.00;;;;;3.18;74.28;100020.81;6311457;20;3476421;-49
2022/02/08 02:49:15;;;;;;;;;6.50;2.00;;;;;2.98;74.97;100021.34;6300425;20;1824824;-47
2022/02/08 02:51:44;;;;;;;;;5.00;4.00;;;;;3.22;74.38;100035.75;6329943;20;1820111;-46
2022/02/08 02:54:19;;;;;;;;;9.00;4.00;;;;;3.20;74.28;100042.88;6313447;20;2761758;-45
2022/02/08 02:56:49;;;;;;;;;5.75;2.00;;;;;3.22;74.41;100051.69;6325779;20;1815457;-46
2022/02/08 02:59:20;;;;;;;;;2.33;2.33;;;;;3.16;74.33;100057.16;6311309;20;3453411;-45
2022/02/08 03:04:43;;;;;;;;;15.00;5.00;;;;;3.18;74.75;100073.03;6306552;20;2794056;-49
2022/02/08 03:20:50;;;;;;;;;7.75;7.00;;;;;3.09;74.23;100105.97;6335815;20;1820133;-46
2022/02/08 03:23:18;;;;;;;;;7.00;6.00;;;;;2.88;74.85;100103.81;6335261;20;1817792;-46
2022/02/08 03:25:46;;;;;;;;;4.67;4.67;;;;;3.03;74.96;100111.44;6317453;20;3461818;-47
2022/02/08 03:28:14;;;;;;;;;5.33;4.00;;;;;3.04;76.77;100113.16;6316975;20;3463803;-48
2022/02/08 03:30:42;;;;;;;;;7.00;5.00;;;;;3.05;76.24;100101.63;6336086;20;1816557;-46
2022/02/08 03:33:11;;;;;;;;;7.25;5.00;;;;;2.92;75.36;100116.09;6334325;20;1825456;-45
2022/02/08 03:35:40;;;;;;;;;5.25;5.00;;;;;2.88;75.93;100110.00;6333625;20;1823291;-45
2022/02/08 03:38:11;;;;;;;;;6.50;4.00;;;;;2.96;75.18;100117.78;6335981;20;1825483;-46
2022/02/08 03:40:42;;;;;;;;;12.00;5.00;;;;;3.19;74.56;100120.75;6315108;20;3485684;-46
2022/02/08 03:45:56;;;;;;;;;8.75;4.75;;;;;3.08;74.49;100133.38;6335268;20;1814972;-47
2022/02/08 03:48:26;;;;;;;;;5.00;4.00;;;;;3.20;74.51;100126.91;6316437;20;3465843;-47
2022/02/08 03:51:01;;;;;;;;;5.00;4.00;;;;;3.05;75.16;100129.06;6318312;20;3465845;-45
2022/02/08 03:53:30;;;;;;;;;3.00;2.00;;;;;2.96;74.94;100141.66;6334807;20;1811777;-45
2022/02/08 03:55:58;;;;;;;;;5.00;5.00;;;;;2.91;75.74;100140.88;6318795;20;2746107;-46
2022/02/08 03:58:26;;;;;;;;;7.75;6.75;;;;;2.98;75.23;100145.13;6334649;20;1822989;-46
2022/02/08 04:01:14;;;;;;;;;2.67;2.67;;;;;3.08;74.99;100151.94;6316396;20;3451263;-45
2022/02/08 04:03:56;;;;;;;;;4.25;4.00;;;;;3.19;75.34;100154.38;6333521;20;1822207;-45
2022/02/08 04:06:25;;;;;;;;;12.00;2.67;;;;;3.17;75.40;100158.84;6338580;20;1827478;-48
2022/02/08 04:08:55;;;;;;;;;9.67;4.33;;;;;3.21;74.98;100161.38;6315608;20;3464810;-47
2022/02/08 04:11:22;;;;;;;;;6.00;4.00;;;;;3.22;74.68;100157.81;6317102;20;3448186;-46
2022/02/08 04:14:01;;;;;;;;;5.20;3.60;;;;;2.99;75.44;100170.75;6358184;20;2625279;-46
2022/02/08 04:16:36;;;;;;;;;4.25;4.25;;;;;2.93;75.72;100176.19;6306569;20;1822253;-46
2022/02/08 04:41:01;;;;;;;;;8.00;8.00;;;;;3.04;75.82;100200.69;6284409;20;2741968;-46
2022/02/08 04:43:40;;;;;;;;;15.43;9.86;;;;;2.99;75.30;100206.09;6355928;20;1814951;-47
2022/02/08 04:48:56;;;;;;;;;9.00;7.00;;;;;2.89;75.24;100220.47;6284105;20;2755458;-44
2022/02/08 04:51:34;;;;;;;;;13.50;9.00;;;;;3.10;75.22;100234.16;6282951;20;2760687;-46
2022/02/08 05:00:07;;;;;;;;;12.00;8.50;;;;;3.05;75.01;100234.25;6312090;20;2744126;-47
2022/02/08 05:40:43;;;;;;;;;5.00;5.00;;;;;3.35;76.16;100258.38;6317715;20;3452855;-45
2022/02/08 05:41:10;;;;;;;;;3.00;2.67;;;;;2.96;75.53;100255.69;6320338;20;3464830;-45
2022/02/08 05:48:45;;;;;;;;;6.50;4.00;;;;;3.08;75.35;100266.00;6318074;20;2748248;-46
2022/02/08 05:51:20;;;;;;;;;7.00;2.67;;;;;2.60;76.05;100268.78;6318128;20;3464870;-45
2022/02/08 05:53:48;;;;;;;;;6.00;6.00;;;;;2.82;76.16;100263.94;6280589;20;2754470;-45
2022/02/08 05:56:17;;;;;;;;;8.50;4.00;;;;;2.73;75.73;100275.59;6306440;20;1816362;-48
2022/02/08 05:58:48;;;;;;;;;6.67;4.00;;;;;2.91;74.84;100277.00;6340176;20;1812764;-45
2022/02/08 06:01:16;;;;;;;;;4.25;4.00;;;;;2.84;75.14;100268.31;6334176;20;1825377;-46
2022/02/08 06:03:44;;;;;;;;;4.00;4.00;;;;;3.08;75.00;100273.97;6314460;20;3454464;-47
2022/02/08 06:06:12;;;;;;;;;5.67;2.00;;;;;2.85;75.05;100283.31;6316680;20;3468007;-46
2022/02/08 06:08:40;;;;;;;;;10.00;6.00;;;;;3.04;74.52;100277.63;6303535;20;1823337;-46
2022/02/08 06:11:15;;;;;;;;;8.25;7.25;;;;;2.95;74.10;100280.44;6335225;20;1825264;-46
2022/02/08 06:13:43;;;;;;;;;13.00;5.00;;;;;2.96;74.15;100290.16;6316079;20;2776295;-46
2022/02/08 06:16:17;;;;;;;;;5.00;1.33;;;;;2.91;74.34;100289.38;6287162;20;3437750;-46
2022/02/08 06:18:45;;;;;;;;;12.00;6.00;;;;;3.06;74.06;100289.06;6314760;20;2774336;-47
2022/02/08 06:21:15;;;;;;;;;4.75;4.75;;;;;3.01;73.34;100289.16;6304450;20;1819106;-47
2022/02/08 06:23:45;;;;;;;;;11.33;7.17;;;;;2.99;73.17;100284.78;6358012;20;1811273;-45
2022/02/08 06:26:15;;;;;;;;;9.25;4.00;;;;;3.11;73.90;100284.56;6302474;20;1829526;-46
2022/02/08 06:28:50;;;;;;;;;21.20;13.80;;;;;3.36;72.53;100289.31;6340717;20;2809643;-46
2022/02/08 06:31:17;;;;;;;;;11.00;9.00;;;;;3.45;71.89;100303.25;6285220;20;2760726;-45
2022/02/08 06:33:46;;;;;;;;;5.00;4.00;;;;;3.16;71.91;100303.91;6301801;20;1821173;-46
2022/02/08 06:36:15;;;;;;;;;12.50;5.25;;;;;3.49;71.68;100315.53;6331598;20;1835767;-46
2022/02/08 06:38:42;;;;;;;;;4.00;1.00;;;;;3.63;70.92;100312.56;6317899;20;3454397;-46
2022/02/08 06:41:12;;;;;;;;;9.00;5.00;;;;;3.37;70.78;100333.50;6317587;20;2750665;-46
2022/02/08 06:43:40;;;;;;;;;11.00;5.00;;;;;3.87;69.66;100327.06;6332177;20;1825279;-46
2022/02/08 06:46:08;;;;;;;;;1.33;1.33;;;;;4.23;68.28;100329.72;6318564;20;2720329;-46
2022/02/08 06:48:38;;;;;;;;;7.75;2.25;;;;;4.23;67.28;100334.16;6335065;20;1817034;-47
2022/02/08 06:51:06;;;;;;;;;10.00;7.00;;;;;4.85;65.35;100334.31;6316249;20;2775273;-46
2022/02/08 06:53:34;;;;;;;;;13.00;2.00;;;;;4.51;65.37;100335.22;6283591;20;2794020;-46
2022/02/08 06:56:03;;;;;;;;;9.25;3.00;;;;;5.11;64.08;100335.34;6308309;20;1821128;-46
2022/02/08 06:58:46;;;;;;;;;11.00;6.00;;;;;5.06;63.76;100328.38;6323245;20;2769099;-46
2022/02/08 07:01:18;;;;;;;;;7.50;6.25;;;;;5.41;62.34;100329.13;6309155;20;1825390;-50
2022/02/08 07:03:48;;;;;;;;;4.50;2.50;;;;;5.52;62.07;100331.44;6338454;20;1825290;-53
2022/02/08 07:06:19;;;;;;;;;16.20;9.40;;;;;5.60;61.88;100333.88;6347818;20;2774364;-51
2022/02/08 07:08:46;;;;;;;;;9.00;5.00;;;;;5.80;60.23;100343.94;6290225;20;2761737;-52
2022/02/08 07:11:17;;;;;;;;;7.00;6.17;;;;;6.31;59.04;100346.72;6333991;20;1797163;-50
2022/02/08 07:13:48;;;;;;;;;11.40;7.40;;;;;6.66;57.24;100359.78;6314756;20;2760773;-46
2022/02/08 07:16:17;;;;;;;;;11.00;6.00;;;;;6.88;56.70;100359.91;6290716;20;2771073;-47
2022/02/08 07:18:46;;;;;;;;;7.50;5.75;;;;;6.92;56.61;100356.19;6310949;20;1811272;-48
2022/02/08 07:21:15;;;;;;;;;7.20;6.20;;;;;7.02;55.08;100365.63;6346303;20;2754498;-48
2022/02/08 07:23:43;;;;;;;;;10.00;7.50;;;;;7.11;57.40;100375.09;6318659;20;2753387;-47
2022/02/08 07:26:11;;;;;;;;;6.00;2.00;;;;;7.19;57.31;100375.72;6289849;20;2738183;-47
2022/02/08 07:28:42;;;;;;;;;5.00;4.50;;;;;7.12;57.50;100377.72;6339288;20;1822937;-47
2022/02/08 07:31:20;;;;;;;;;8.00;3.00;;;;;6.62;56.70;100385.72;6322197;20;2761817;-44
2022/02/08 07:34:13;;;;;;;;;10.25;2.50;;;;;7.70;56.70;100386.22;6306438;20;1811630;-47
2022/02/08 07:36:53;;;;;;;;;10.75;6.75;;;;;7.44;56.58;100397.03;6338934;20;1819155;-46
2022/02/08 07:39:26;;;;;;;;;2.75;1.00;;;;;6.78;55.76;100397.59;6338986;20;1814940;-47
2022/02/08 07:41:55;;;;;;;;;15.75;11.00;;;;;6.51;55.18;100404.75;6338468;20;1825340;-45
2022/02/08 07:44:23;;;;;;;;;9.00;5.00;;;;;6.20;56.17;100404.88;6339002;20;1817573;-45
2022/02/08 07:46:51;;;;;;;;;9.00;7.00;;;;;6.21;56.75;100400.41;6320237;20;2759712;-44
2022/02/08 07:49:20;;;;;;;;;6.00;6.00;;;;;6.09;56.87;100401.69;6307639;20;1823262;-44
2022/02/08 07:51:47;;;;;;;;;9.00;2.00;;;;;6.32;56.01;100404.47;6321175;20;2756545;-46
2022/02/08 07:54:16;;;;;;;;;11.50;8.00;;;;;6.22;56.74;100408.38;6305425;20;1818101;-45
2022/02/08 07:56:50;;;;;;;;;11.00;6.00;;;;;6.18;56.74;100433.38;6322094;20;2773621;-43
2022/02/08 07:59:18;;;;;;;;;18.33;14.00;;;;;5.94;57.76;100414.56;6285548;20;3539859;-46
2022/02/08 08:01:46;;;;;;;;;7.00;6.50;;;;;6.50;56.14;100407.44;6321289;20;2743029;-46
2022/02/08 08:04:14;;;;;;;;;8.00;6.00;;;;;6.46;56.49;100417.38;6319847;20;2761783;-44
2022/02/08 08:06:43;;;;;;;;;7.00;5.00;;;;;6.55;55.28;100419.72;6307352;20;1829539;-43
2022/02/08 08:09:11;;;;;;;;;13.00;13.00;;;;;6.27;56.46;100413.56;6319873;20;2786707;-44
2022/02/08 08:11:40;;;;;;;;;4.33;4.33;;;;;6.19;56.45;100429.81;6289646;20;3465966;-44
2022/02/08 08:14:11;;;;;;;;;4.50;3.50;;;;;6.12;56.31;100422.91;6290381;20;2747163;-44
2022/02/08 08:16:47;;;;;;;;;11.25;4.00;;;;;6.91;54.86;100424.72;6337128;20;1812974;-45
2022/02/08 08:19:22;;;;;;;;;11.00;2.50;;;;;6.43;56.09;100422.81;6321233;20;2773160;-44
2022/02/08 08:21:51;;;;;;;;;7.00;2.00;;;;;7.01;55.04;100430.63;6307673;20;1825367;-45
2022/02/08 08:24:20;;;;;;;;;6.50;3.00;;;;;6.96;57.16;100446.81;6339191;20;1816998;-45
2022/02/08 08:26:49;;;;;;;;;6.50;5.50;;;;;6.64;55.25;100434.56;6338840;20;1823281;-45
2022/02/08 08:29:18;;;;;;;;;16.40;12.80;;;;;7.14;55.04;100452.44;6342734;20;2798194;-45
2022/02/08 08:31:48;;;;;;;;;16.20;10.80;;;;;6.93;55.74;100454.06;6312957;20;2777623;-44
2022/02/08 08:34:18;;;;;;;;;17.00;9.40;;;;;7.16;54.25;100450.56;6313957;20;2806718;-44
2022/02/08 08:36:47;;;;;;;;;14.00;7.50;;;;;7.01;53.80;100462.69;6289351;20;2773271;-43
2022/02/08 08:39:17;;;;;;;;;13.00;9.50;;;;;7.09;53.79;100455.28;6288211;20;2777701;-46
2022/02/08 08:42:13;;;;;;;;;10.50;7.00;;;;;7.04;53.35;100449.22;6290733;20;2765879;-45
2022/02/08 08:50:32;;;;;;;;;21.67;12.00;;;;;6.84;53.11;100465.03;6288739;20;3536728;-46
2022/02/08 08:52:59;;;;;;;;;9.00;9.00;;;;;6.90;53.34;100459.47;6321544;20;2768008;-46
2022/02/08 08:55:29;;;;;;;;;5.50;3.00;;;;;7.05;53.33;100448.28;6285649;20;2756544;-44
2022/02/08 08:57:57;;;;;;;;;9.50;8.00;;;;;7.14;53.05;100455.97;6287655;20;2757541;-44
2022/02/08 09:00:28;;;;;;;;;15.50;9.00;;;;;7.26;53.58;100452.00;6287722;20;2782717;-45
2022/02/08 09:02:56;;;;;;;;;15.00;8.00;;;;;7.09;52.32;100468.63;6287819;20;2791932;-46
2022/02/08 09:05:24;;;;;;;;;12.50;4.00;;;;;7.12;52.47;100467.66;6284765;20;2782563;-45
2022/02/08 09:07:52;;;;;;;;;10.00;5.00;;;;;7.08;53.12;100466.84;6290092;20;2777809;-45
2022/02/08 09:10:26;;;;;;;;;13.00;6.00;;;;;7.40;52.31;100459.53;6287563;20;2770093;-43
2022/02/08 09:15:50;;;;;;;;;12.50;4.00;;;;;7.14;52.27;100471.13;6299485;20;1820111;-46
2022/02/08 09:18:39;;;;;;;;;9.00;3.00;;;;;7.25;51.37;100467.16;6316508;20;2757525;-45
2022/02/08 09:29:37;;;;;;;;;11.00;6.50;;;;;7.80;53.21;100464.28;6285030;20;2778368;-44
2022/02/08 09:32:18;;;;;;;;;21.67;12.00;;;;;7.83;51.39;100468.63;6288733;20;3554419;-45
2022/02/08 09:34:48;;;;;;;;;41.00;20.33;;;;;7.31;51.73;100470.53;6312252;20;3593971;-44
2022/02/08 09:37:18;;;;;;;;;25.67;12.33;;;;;7.94;51.46;100465.53;6285173;20;3561806;-45
2022/02/08 09:39:51;;;;;;;;;9.00;4.00;;;;;7.60;51.38;100473.00;6285543;20;2754852;-44
2022/02/08 09:42:20;;;;;;;;;7.00;5.50;;;;;7.64;50.90;100465.78;6289913;20;2754553;-50
2022/02/08 09:44:48;;;;;;;;;11.50;6.00;;;;;7.58;51.06;100472.22;6286427;20;2774224;-45
2022/02/08 09:47:21;;;;;;;;;14.20;5.20;;;;;7.70;50.91;100476.22;6306285;20;2775236;-47
2022/02/08 09:49:54;;;;;;;;;5.75;2.00;;;;;7.89;50.45;100468.38;6307102;20;1825864;-47
2022/02/08 09:52:28;;;;;;;;;6.00;4.00;;;;;8.18;50.36;100469.06;6318774;20;2739884;-46
2022/02/08 09:54:56;;;;;;;;;11.50;8.00;;;;;7.79;50.86;100477.69;6315293;20;2766982;-45
2022/02/08 09:57:24;;;;;;;;;13.50;4.00;;;;;7.67;49.84;100466.53;6287057;20;2785680;-47
2022/02/08 09:59:52;;;;;;;;;12.00;8.00;;;;;7.93;50.29;100475.38;6287580;20;2769053;-46
2022/02/08 10:02:23;;;;;;;;;7.00;3.00;;;;;8.06;50.11;100468.63;6306878;20;1814941;-45
2022/02/08 10:05:04;;;;;;;;;16.50;7.00;;;;;7.73;49.67;100469.91;6316456;20;2782621;-46
2022/02/08 10:07:33;;;;;;;;;15.00;6.50;;;;;8.24;49.88;100460.78;6287086;20;2789877;-46
2022/02/08 10:10:06;;;;;;;;;21.00;6.00;;;;;7.85;49.09;100424.88;6285951;20;3546073;-47
2022/02/08 10:13:39;;;;;;;;;17.40;8.00;;;;;7.62;49.68;100439.09;6342538;20;2801293;-44
2022/02/08 10:24:12;;;;;;;;;15.50;7.50;;;;;8.51;48.71;100442.81;6316429;20;2786727;-44
2022/02/08 10:29:40;;;;;;;;;7.50;3.00;;;;;8.85;47.77;100439.59;6288954;20;2744014;-46
2022/02/08 10:38:09;;;;;;;;;6.00;2.00;;;;;8.07;48.22;100434.72;6324387;20;2756494;-46
2022/02/08 10:40:38;;;;;;;;;2.00;2.00;;;;;8.36;47.97;100436.25;6307762;20;1814934;-45
2022/02/08 10:43:18;;;;;;;;;8.25;4.00;;;;;8.28;49.93;100433.00;6341776;20;1811843;-44
2022/02/08 10:45:47;;;;;;;;;6.00;4.00;;;;;8.66;48.67;100436.84;6339532;20;1812888;-45
2022/02/08 10:48:23;;;;;;;;;7.00;3.00;;;;;8.96;48.09;100421.25;6324812;20;2750245;-44
2022/02/08 10:50:57;;;;;;;;;3.50;1.00;;;;;8.89;47.66;100432.28;6309446;20;1808077;-45
2022/02/08 10:53:38;;;;;;;;;3.50;2.25;;;;;9.07;48.05;100423.47;6366598;20;2579419;-48
2022/02/08 10:56:10;;;;;;;;;4.00;2.67;;;;;9.13;47.59;100427.69;6292288;20;3467954;-49
2022/02/08 10:58:49;;;;;;;;;8.00;4.00;;;;;9.35;47.55;100439.22;6288638;20;2749217;-46
2022/02/08 11:01:21;;;;;;;;;9.50;2.50;;;;;8.85;46.33;100422.66;6300796;20;2775630;-44
2022/02/08 11:03:58;;;;;;;;;13.00;10.00;;;;;8.94;45.28;100428.47;6289766;20;2781562;-46
2022/02/08 11:06:32;;;;;;;;;7.00;5.00;;;;;9.44;45.29;100422.72;6293692;20;2755554;-45
2022/02/08 11:09:20;;;;;;;;;7.00;7.00;;;;;9.32;46.38;100420.59;6289726;20;2749253;-46
2022/02/08 11:22:47;;;;;;;;;33.33;24.00;;;;;10.39;48.91;100430.81;6287880;20;3589798;-49
2022/02/08 11:28:45;;;;;;;;;4.00;3.00;;;;;9.82;47.39;100446.91;6290922;20;2756506;-45
2022/02/08 11:31:26;;;;;;;;;14.00;10.00;;;;;9.17;48.02;100446.25;6288020;20;2778809;-45
2022/02/08 11:48:08;;;;;;;;;7.50;4.00;;;;;8.74;51.96;100444.50;6290584;20;2749193;-45
2022/02/08 12:02:02;;;;;;;;;9.00;7.50;;;;;9.65;51.83;100461.06;6292109;20;2752336;-47
2022/02/08 12:09:52;;;;;;;;;7.50;3.00;;;;;9.57;52.50;100459.69;6291386;20;2744000;-47
2022/02/08 12:35:35;;;;;;;;;22.00;13.80;;;;;8.18;51.82;100420.91;6309619;20;2816945;-44
2022/02/08 13:05:54;;;;;;;;;10.20;8.40;;;;;9.53;52.38;100404.47;6339071;20;2749253;-50
2022/02/08 14:01:55;;;;;;;;;15.50;12.50;;;;;9.05;51.04;100392.31;6284820;20;2791949;-44
2022/02/08 14:05:33;;;;;;;;;11.80;7.80;;;;;8.97;51.20;100388.16;6311214;20;2756508;-43
2022/02/08 14:21:36;;;;;;;;;9.25;6.25;;;;;8.32;52.24;100394.47;6302912;20;1802403;-45
2022/02/08 14:24:20;;;;;;;;;8.50;7.00;;;;;8.56;52.15;100395.31;6320191;20;2731556;-54
2022/02/08 14:29:49;;;;;;;;;15.00;10.50;;;;;8.46;52.43;100400.19;6316432;20;2792011;-54
2022/02/08 14:32:59;;;;;;;;;7.00;6.00;;;;;8.76;53.65;100402.50;6287732;20;2750242;-54
2022/02/08 14:57:39;;;;;;;;;6.33;5.00;;;;;8.27;52.30;100383.13;6327315;20;1799224;-54
2022/02/08 15:08:27;;;;;;;;;9.00;8.00;;;;;8.51;52.74;100375.91;6315167;20;2741966;-54
2022/02/08 15:11:02;;;;;;;;;9.50;8.00;;;;;8.64;53.44;100366.41;6287559;20;2751325;-53
2022/02/08 15:13:31;;;;;;;;;5.25;5.25;;;;;8.46;53.32;100370.75;6300577;20;1819242;-51
2022/02/08 15:18:48;;;;;;;;;6.00;6.00;;;;;8.46;52.29;100384.13;6288377;20;2745060;-53
2022/02/08 15:21:22;;;;;;;;;10.50;9.50;;;;;8.48;52.82;100382.25;6287778;20;2766301;-54
2022/02/08 15:23:52;;;;;;;;;12.80;10.00;;;;;8.33;52.43;100385.53;6310196;20;2773294;-44
2022/02/08 15:26:22;;;;;;;;;11.80;8.20;;;;;8.42;52.34;100392.31;6311126;20;2767070;-45
2022/02/08 15:28:51;;;;;;;;;8.00;8.00;;;;;8.19;53.07;100398.56;6287173;20;2746183;-44
2022/02/08 15:31:19;;;;;;;;;14.00;11.00;;;;;8.27;53.71;100400.03;6287667;20;2793041;-43
2022/02/08 15:33:47;;;;;;;;;14.00;10.00;;;;;8.37;53.41;100397.81;6287840;20;2789850;-43
2022/02/08 15:36:16;;;;;;;;;24.00;19.00;;;;;8.56;52.64;100406.03;6284646;20;2498180;-44
2022/02/08 15:38:53;;;;;;;;;44.33;30.67;;;;;8.19;54.13;100402.16;6284947;20;3631547;-44
2022/02/08 15:41:22;;;;;;;;;22.00;20.50;;;;;8.30;54.46;100409.75;6315963;20;2829559;-43
2022/02/08 15:43:51;;;;;;;;;19.67;13.00;;;;;8.24;53.45;100402.84;6283510;20;3534599;-43
2022/02/08 15:46:24;;;;;;;;;25.50;20.50;;;;;8.33;53.60;100409.59;6310142;20;2496104;-42
2022/02/08 15:48:54;;;;;;;;;26.00;21.50;;;;;8.20;53.98;100397.66;6283276;20;2500383;-43
2022/02/08 15:54:09;;;;;;;;;21.33;17.00;;;;;7.88;54.84;100405.16;6280358;20;3563824;-45
2022/02/08 15:57:09;;;;;;;;;22.00;20.33;;;;;8.10;54.57;100392.66;6281616;20;2827893;-45
2022/02/08 16:08:13;;;;;;;;;36.00;27.67;;;;;8.23;56.22;100409.09;6284543;20;2860811;-45
2022/02/08 16:11:01;;;;;;;;;43.33;29.67;;;;;8.05;55.12;100400.00;6316612;20;2868220;-45
2022/02/08 16:19:04;;;;;;;;;20.00;15.00;;;;;7.99;55.38;100415.44;6281064;20;2829559;-45
2022/02/08 16:52:05;;;;;;;;;29.00;16.00;;;;;8.06;57.07;100358.97;6283835;20;3584585;-48
2022/02/08 16:56:55;;;;;;;;;18.00;13.00;;;;;7.75;57.23;100342.41;6285754;20;2802440;-46
2022/02/08 17:01:56;;;;;;;;;17.00;14.00;;;;;7.94;57.41;100348.75;6286390;20;2813822;-45
2022/02/08 17:04:24;;;;;;;;;10.00;9.00;;;;;8.02;58.10;100341.28;6283908;20;2762872;-45
2022/02/08 17:06:55;;;;;;;;;11.80;11.60;;;;;7.76;56.97;100349.50;6309870;20;2788865;-45
2022/02/08 17:09:43;;;;;;;;;8.50;8.50;;;;;7.86;57.33;100350.88;6285927;20;2762822;-44
2022/02/08 17:12:32;;;;;;;;;16.83;16.00;;;;;8.08;58.49;100356.22;6336922;20;2824406;-44
2022/02/08 17:45:59;;;;;;;;;14.00;12.33;;;;;7.75;59.19;100353.97;6284343;20;2791963;-44
2022/02/08 17:48:33;;;;;;;;;22.00;15.67;;;;;7.65;59.86;100353.44;6311932;20;3557530;-45
2022/02/08 17:51:02;;;;;;;;;15.67;15.33;;;;;7.57;60.31;100347.53;6312704;20;3548150;-45
2022/02/08 17:53:52;;;;;;;;;18.20;13.80;;;;;7.76;61.03;100342.34;6336408;20;2816932;-44
2022/02/08 17:56:22;;;;;;;;;25.50;21.50;;;;;7.58;60.16;100341.28;6282234;20;2833713;-47
2022/02/08 17:58:55;;;;;;;;;11.00;11.00;;;;;7.58;60.84;100346.63;6281000;20;2784744;-45
2022/02/08 18:01:25;;;;;;;;;16.00;11.33;;;;;7.77;61.35;100348.56;6312918;20;3544157;-45
2022/02/08 18:03:53;;;;;;;;;10.25;7.25;;;;;7.68;61.24;100345.31;6327024;20;1821220;-44
2022/02/08 18:06:25;;;;;;;;;11.14;7.29;;;;;7.97;62.53;100337.94;6354305;20;1812848;-45
2022/02/08 18:08:53;;;;;;;;;11.00;10.00;;;;;7.90;61.19;100348.03;6312801;20;2772130;-44
2022/02/08 18:11:26;;;;;;;;;9.00;8.80;;;;;7.67;62.58;100343.56;6307737;20;2743036;-45
2022/02/08 18:13:54;;;;;;;;;13.00;11.00;;;;;7.85;62.25;100357.16;6311400;20;2785856;-47
2022/02/08 18:16:23;;;;;;;;;11.50;11.50;;;;;7.65;63.14;100358.78;6281444;20;2792361;-44
2022/02/08 18:18:51;;;;;;;;;15.00;13.00;;;;;7.65;64.33;100356.13;6283058;20;2785783;-45
2022/02/08 18:21:34;;;;;;;;;11.00;9.50;;;;;7.45;63.51;100339.97;6278960;20;2759738;-44
2022/02/08 19:18:33;;;;;;;;;19.00;15.00;;;;;7.77;67.52;100335.22;6290066;20;2739879;-44
2022/02/08 19:23:38;;;;;;;;;13.50;11.00;;;;;7.68;67.95;100326.59;6312924;20;2788803;-47
2022/02/08 19:26:08;;;;;;;;;13.00;10.50;;;;;7.31;69.18;100332.50;6284204;20;2787810;-44
2022/02/08 19:28:36;;;;;;;;;19.50;16.00;;;;;7.73;68.53;100338.94;6287843;20;2813872;-45